Muncie, Indiana
Current Conditions -  °F | °C
As of 4:08 PM on Saturday 20 Dec 2014 (Local Time) from KMIE Reporting Station
Overcast Overcast  
Wind Chill:   Ceiling: 2500
Heat Index:   Visibility: 10mi
Dew Point: -4°   Wind: 3mph
Humidity: 73%   Direction: 330°NNW
Pressure: 30.25"   Gusts: NA
Location:  40.19°N, 85.38°W
Report Text: KMIE 202108Z 33003KT 10SM BKN025 BKN033 OVC070 00/M04 A3025 RMK AO2 T00001044
Loading
Personal Weather Stations






























Interactive Weather Map New forecast layout! Learn more

10-Day Weather Forecast

Advertisements
Track Severe Weather on mobile